sensor_id;sensor_type;location;lat;lon;timestamp;temperature;humidity
14252;DHT22;7210;51.502;10.722;2024-02-23T00:02:05;8.60;99.90
14252;DHT22;7210;51.502;10.722;2024-02-23T00:04:32;8.70;99.90
14252;DHT22;7210;51.502;10.722;2024-02-23T00:06:59;8.70;99.90
14252;DHT22;7210;51.502;10.722;2024-02-23T00:09:28;8.80;99.90
14252;DHT22;7210;51.502;10.722;2024-02-23T00:11:55;8.70;99.90
14252;DHT22;7210;51.502;10.722;2024-02-23T00:14:23;8.70;99.90
14252;DHT22;7210;51.502;10.722;2024-02-23T00:16:54;8.70;99.90
14252;DHT22;7210;51.502;10.722;2024-02-23T00:19:23;8.70;99.90
14252;DHT22;7210;51.502;10.722;2024-02-23T00:21:50;8.60;99.90
14252;DHT22;7210;51.502;10.722;2024-02-23T00:24:18;8.60;99.90
14252;DHT22;7210;51.502;10.722;2024-02-23T00:26:47;8.50;99.90
14252;DHT22;7210;51.502;10.722;2024-02-23T00:29:14;8.50;99.90
14252;DHT22;7210;51.502;10.722;2024-02-23T00:31:43;8.50;99.90
14252;DHT22;7210;51.502;10.722;2024-02-23T00:34:11;8.40;99.90
14252;DHT22;7210;51.502;10.722;2024-02-23T00:36:39;8.40;99.90
14252;DHT22;7210;51.502;10.722;2024-02-23T00:39:08;8.40;99.90
14252;DHT22;7210;51.502;10.722;2024-02-23T00:41:35;8.40;99.90
14252;DHT22;7210;51.502;10.722;2024-02-23T00:44:03;8.40;99.90
14252;DHT22;7210;51.502;10.722;2024-02-23T00:46:30;8.40;99.90
14252;DHT22;7210;51.502;10.722;2024-02-23T00:48:59;8.40;99.90
14252;DHT22;7210;51.502;10.722;2024-02-23T00:51:26;8.50;99.90
14252;DHT22;7210;51.502;10.722;2024-02-23T00:53:53;8.40;99.90
14252;DHT22;7210;51.502;10.722;2024-02-23T00:56:20;8.40;99.90
14252;DHT22;7210;51.502;10.722;2024-02-23T00:58:47;8.30;99.90
14252;DHT22;7210;51.502;10.722;2024-02-23T01:01:14;8.30;99.90
14252;DHT22;7210;51.502;10.722;2024-02-23T01:03:42;8.20;99.90
14252;DHT22;7210;51.502;10.722;2024-02-23T01:06:10;8.20;99.90
14252;DHT22;7210;51.502;10.722;2024-02-23T01:08:38;8.20;99.90
14252;DHT22;7210;51.502;10.722;2024-02-23T01:11:06;8.20;99.90
14252;DHT22;7210;51.502;10.722;2024-02-23T01:13:33;8.20;99.90
14252;DHT22;7210;51.502;10.722;2024-02-23T01:16:01;8.20;99.90
14252;DHT22;7210;51.502;10.722;2024-02-23T01:18:28;8.10;99.90
14252;DHT22;7210;51.502;10.722;2024-02-23T01:20:56;8.10;99.90
14252;DHT22;7210;51.502;10.722;2024-02-23T01:23:25;8.10;99.90
14252;DHT22;7210;51.502;10.722;2024-02-23T01:25:52;8.20;99.90
14252;DHT22;7210;51.502;10.722;2024-02-23T01:28:19;8.20;99.90
14252;DHT22;7210;51.502;10.722;2024-02-23T01:30:46;8.20;99.90
14252;DHT22;7210;51.502;10.722;2024-02-23T01:33:13;8.10;99.90
14252;DHT22;7210;51.502;10.722;2024-02-23T01:35:42;8.10;99.90
14252;DHT22;7210;51.502;10.722;2024-02-23T01:38:10;8.10;99.90
14252;DHT22;7210;51.502;10.722;2024-02-23T01:40:38;8.10;99.90
14252;DHT22;7210;51.502;10.722;2024-02-23T01:43:05;8.20;99.90
14252;DHT22;7210;51.502;10.722;2024-02-23T01:45:36;8.20;99.90
14252;DHT22;7210;51.502;10.722;2024-02-23T01:48:04;8.10;99.90
14252;DHT22;7210;51.502;10.722;2024-02-23T01:50:33;8.10;99.90
14252;DHT22;7210;51.502;10.722;2024-02-23T01:53:02;8.20;99.90
14252;DHT22;7210;51.502;10.722;2024-02-23T01:55:30;8.10;99.90
14252;DHT22;7210;51.502;10.722;2024-02-23T01:58:00;8.10;99.90
14252;DHT22;7210;51.502;10.722;2024-02-23T02:00:31;8.00;99.90
14252;DHT22;7210;51.502;10.722;2024-02-23T02:02:58;8.00;99.90
14252;DHT22;7210;51.502;10.722;2024-02-23T02:05:26;7.90;99.90
14252;DHT22;7210;51.502;10.722;2024-02-23T02:07:55;7.90;99.90
14252;DHT22;7210;51.502;10.722;2024-02-23T02:10:25;7.90;99.90
14252;DHT22;7210;51.502;10.722;2024-02-23T02:12:52;7.80;99.90
14252;DHT22;7210;51.502;10.722;2024-02-23T02:15:21;7.80;99.90
14252;DHT22;7210;51.502;10.722;2024-02-23T02:17:48;7.80;99.90
14252;DHT22;7210;51.502;10.722;2024-02-23T02:20:18;7.70;99.90
14252;DHT22;7210;51.502;10.722;2024-02-23T02:22:51;7.70;99.90
14252;DHT22;7210;51.502;10.722;2024-02-23T02:25:18;7.80;99.90
14252;DHT22;7210;51.502;10.722;2024-02-23T02:27:45;7.80;99.90
14252;DHT22;7210;51.502;10.722;2024-02-23T02:30:13;7.70;99.90
14252;DHT22;7210;51.502;10.722;2024-02-23T02:32:42;7.70;99.90
14252;DHT22;7210;51.502;10.722;2024-02-23T02:35:11;7.60;99.90
14252;DHT22;7210;51.502;10.722;2024-02-23T02:37:38;7.60;99.90
14252;DHT22;7210;51.502;10.722;2024-02-23T02:40:06;7.50;99.90
14252;DHT22;7210;51.502;10.722;2024-02-23T02:42:34;7.50;99.90
14252;DHT22;7210;51.502;10.722;2024-02-23T02:45:01;7.50;99.90
14252;DHT22;7210;51.502;10.722;2024-02-23T02:47:30;7.60;99.90
14252;DHT22;7210;51.502;10.722;2024-02-23T02:50:02;7.50;99.90
14252;DHT22;7210;51.502;10.722;2024-02-23T02:52:32;7.50;99.90
14252;DHT22;7210;51.502;10.722;2024-02-23T02:54:59;7.50;99.90
14252;DHT22;7210;51.502;10.722;2024-02-23T02:57:26;7.50;99.90
14252;DHT22;7210;51.502;10.722;2024-02-23T02:59:53;7.40;99.90
14252;DHT22;7210;51.502;10.722;2024-02-23T03:02:20;7.40;99.90
14252;DHT22;7210;51.502;10.722;2024-02-23T03:04:54;7.30;99.90
14252;DHT22;7210;51.502;10.722;2024-02-23T03:07:26;7.30;99.90
14252;DHT22;7210;51.502;10.722;2024-02-23T03:09:53;7.20;99.90
14252;DHT22;7210;51.502;10.722;2024-02-23T03:12:20;7.20;99.90
14252;DHT22;7210;51.502;10.722;2024-02-23T03:14:47;7.20;99.90
14252;DHT22;7210;51.502;10.722;2024-02-23T03:17:15;7.20;99.90
14252;DHT22;7210;51.502;10.722;2024-02-23T03:19:42;7.20;99.90
14252;DHT22;7210;51.502;10.722;2024-02-23T03:22:10;7.10;99.90
14252;DHT22;7210;51.502;10.722;2024-02-23T03:24:38;7.10;99.90
14252;DHT22;7210;51.502;10.722;2024-02-23T03:27:06;7.00;99.90
14252;DHT22;7210;51.502;10.722;2024-02-23T03:29:33;7.00;99.90
14252;DHT22;7210;51.502;10.722;2024-02-23T03:32:00;7.00;99.90
14252;DHT22;7210;51.502;10.722;2024-02-23T03:34:28;6.90;99.90
14252;DHT22;7210;51.502;10.722;2024-02-23T03:36:55;6.90;99.90
14252;DHT22;7210;51.502;10.722;2024-02-23T03:39:23;6.90;99.90
14252;DHT22;7210;51.502;10.722;2024-02-23T03:41:52;6.80;99.90
14252;DHT22;7210;51.502;10.722;2024-02-23T03:44:19;6.80;99.90
14252;DHT22;7210;51.502;10.722;2024-02-23T03:46:48;6.70;99.90
14252;DHT22;7210;51.502;10.722;2024-02-23T03:49:16;6.60;99.90
14252;DHT22;7210;51.502;10.722;2024-02-23T03:51:43;6.60;99.90
14252;DHT22;7210;51.502;10.722;2024-02-23T03:54:10;6.60;99.90
14252;DHT22;7210;51.502;10.722;2024-02-23T03:56:41;6.60;99.90
14252;DHT22;7210;51.502;10.722;2024-02-23T03:59:10;6.70;99.90
14252;DHT22;7210;51.502;10.722;2024-02-23T04:01:37;6.70;99.90
14252;DHT22;7210;51.502;10.722;2024-02-23T04:04:05;6.70;99.90
14252;DHT22;7210;51.502;10.722;2024-02-23T04:06:33;6.60;99.90
14252;DHT22;7210;51.502;10.722;2024-02-23T04:09:06;6.60;99.90
14252;DHT22;7210;51.502;10.722;2024-02-23T04:11:34;6.50;99.90
14252;DHT22;7210;51.502;10.722;2024-02-23T04:14:01;6.40;99.90
14252;DHT22;7210;51.502;10.722;2024-02-23T04:16:32;6.30;99.90
14252;DHT22;7210;51.502;10.722;2024-02-23T04:18:59;6.30;99.90
14252;DHT22;7210;51.502;10.722;2024-02-23T04:21:26;6.30;99.90
14252;DHT22;7210;51.502;10.722;2024-02-23T04:23:53;6.20;99.90
14252;DHT22;7210;51.502;10.722;2024-02-23T04:26:20;6.10;99.90
14252;DHT22;7210;51.502;10.722;2024-02-23T04:28:47;6.10;99.90
14252;DHT22;7210;51.502;10.722;2024-02-23T04:31:14;6.00;99.90
14252;DHT22;7210;51.502;10.722;2024-02-23T04:33:43;6.00;99.90
14252;DHT22;7210;51.502;10.722;2024-02-23T04:36:10;6.00;99.90
14252;DHT22;7210;51.502;10.722;2024-02-23T04:38:42;6.00;99.90
14252;DHT22;7210;51.502;10.722;2024-02-23T04:41:10;5.90;99.90
14252;DHT22;7210;51.502;10.722;2024-02-23T04:43:42;5.90;99.90
14252;DHT22;7210;51.502;10.722;2024-02-23T04:46:10;5.80;99.90
14252;DHT22;7210;51.502;10.722;2024-02-23T04:48:38;5.70;99.90
14252;DHT22;7210;51.502;10.722;2024-02-23T04:51:06;5.60;99.90
14252;DHT22;7210;51.502;10.722;2024-02-23T04:53:36;5.40;99.90
14252;DHT22;7210;51.502;10.722;2024-02-23T04:56:04;5.40;99.90
14252;DHT22;7210;51.502;10.722;2024-02-23T04:58:31;5.30;99.90
14252;DHT22;7210;51.502;10.722;2024-02-23T05:00:58;5.30;99.90
14252;DHT22;7210;51.502;10.722;2024-02-23T05:03:25;5.20;99.90
14252;DHT22;7210;51.502;10.722;2024-02-23T05:05:53;5.20;99.90
14252;DHT22;7210;51.502;10.722;2024-02-23T05:08:21;5.20;99.90
14252;DHT22;7210;51.502;10.722;2024-02-23T05:10:49;5.20;99.90
14252;DHT22;7210;51.502;10.722;2024-02-23T05:13:16;5.20;99.90
14252;DHT22;7210;51.502;10.722;2024-02-23T05:15:44;5.20;99.90
14252;DHT22;7210;51.502;10.722;2024-02-23T05:18:11;5.40;99.90
14252;DHT22;7210;51.502;10.722;2024-02-23T05:20:38;5.40;99.90
14252;DHT22;7210;51.502;10.722;2024-02-23T05:23:05;5.30;99.90
14252;DHT22;7210;51.502;10.722;2024-02-23T05:25:34;5.40;99.90
14252;DHT22;7210;51.502;10.722;2024-02-23T05:28:06;5.40;99.90
14252;DHT22;7210;51.502;10.722;2024-02-23T05:30:34;5.40;99.90
14252;DHT22;7210;51.502;10.722;2024-02-23T05:33:01;5.50;99.90
14252;DHT22;7210;51.502;10.722;2024-02-23T05:35:29;5.50;99.90
14252;DHT22;7210;51.502;10.722;2024-02-23T05:37:56;5.60;99.90
14252;DHT22;7210;51.502;10.722;2024-02-23T05:40:23;5.70;99.90
14252;DHT22;7210;51.502;10.722;2024-02-23T05:42:51;5.60;99.90
14252;DHT22;7210;51.502;10.722;2024-02-23T05:45:18;5.50;99.90
14252;DHT22;7210;51.502;10.722;2024-02-23T05:47:45;5.50;99.90
14252;DHT22;7210;51.502;10.722;2024-02-23T05:50:12;5.40;99.90
14252;DHT22;7210;51.502;10.722;2024-02-23T05:52:39;5.40;99.90
14252;DHT22;7210;51.502;10.722;2024-02-23T05:55:07;5.40;99.90
14252;DHT22;7210;51.502;10.722;2024-02-23T05:57:34;5.30;99.90
14252;DHT22;7210;51.502;10.722;2024-02-23T06:00:04;5.30;99.90
14252;DHT22;7210;51.502;10.722;2024-02-23T06:02:42;5.30;99.90
14252;DHT22;7210;51.502;10.722;2024-02-23T06:05:10;5.30;99.90
14252;DHT22;7210;51.502;10.722;2024-02-23T06:07:38;5.20;99.90
14252;DHT22;7210;51.502;10.722;2024-02-23T06:10:06;5.30;99.90
14252;DHT22;7210;51.502;10.722;2024-02-23T06:12:34;5.20;99.90
14252;DHT22;7210;51.502;10.722;2024-02-23T06:15:02;5.30;99.90
14252;DHT22;7210;51.502;10.722;2024-02-23T06:17:30;5.20;99.90
14252;DHT22;7210;51.502;10.722;2024-02-23T06:19:58;5.10;99.90
14252;DHT22;7210;51.502;10.722;2024-02-23T06:22:25;5.00;99.90
14252;DHT22;7210;51.502;10.722;2024-02-23T06:24:52;5.00;99.90
14252;DHT22;7210;51.502;10.722;2024-02-23T06:27:19;5.00;99.90
14252;DHT22;7210;51.502;10.722;2024-02-23T06:29:48;5.00;99.90
14252;DHT22;7210;51.502;10.722;2024-02-23T06:32:17;4.90;99.90
14252;DHT22;7210;51.502;10.722;2024-02-23T06:34:44;4.80;99.90
14252;DHT22;7210;51.502;10.722;2024-02-23T06:37:12;4.90;99.90
14252;DHT22;7210;51.502;10.722;2024-02-23T06:39:39;4.80;99.90
14252;DHT22;7210;51.502;10.722;2024-02-23T06:42:06;4.80;99.90
14252;DHT22;7210;51.502;10.722;2024-02-23T06:44:42;4.80;99.90
14252;DHT22;7210;51.502;10.722;2024-02-23T06:47:10;4.80;99.90
14252;DHT22;7210;51.502;10.722;2024-02-23T06:49:41;4.80;99.90
14252;DHT22;7210;51.502;10.722;2024-02-23T06:52:09;4.70;99.90
14252;DHT22;7210;51.502;10.722;2024-02-23T06:54:36;4.60;99.90
14252;DHT22;7210;51.502;10.722;2024-02-23T06:57:04;4.60;99.90
14252;DHT22;7210;51.502;10.722;2024-02-23T06:59:31;4.60;99.90
14252;DHT22;7210;51.502;10.722;2024-02-23T07:01:58;4.60;99.90
14252;DHT22;7210;51.502;10.722;2024-02-23T07:04:25;4.60;99.90
14252;DHT22;7210;51.502;10.722;2024-02-23T07:06:55;4.60;99.90
14252;DHT22;7210;51.502;10.722;2024-02-23T07:09:25;4.70;99.90
14252;DHT22;7210;51.502;10.722;2024-02-23T07:11:52;4.80;99.90
14252;DHT22;7210;51.502;10.722;2024-02-23T07:14:19;4.90;99.90
14252;DHT22;7210;51.502;10.722;2024-02-23T07:16:47;4.90;99.90
14252;DHT22;7210;51.502;10.722;2024-02-23T07:19:14;5.00;99.90
14252;DHT22;7210;51.502;10.722;2024-02-23T07:21:41;5.10;99.90
14252;DHT22;7210;51.502;10.722;2024-02-23T07:24:10;5.10;99.90
14252;DHT22;7210;51.502;10.722;2024-02-23T07:26:37;5.20;99.90
14252;DHT22;7210;51.502;10.722;2024-02-23T07:29:05;5.20;99.90
14252;DHT22;7210;51.502;10.722;2024-02-23T07:31:32;5.30;99.90
14252;DHT22;7210;51.502;10.722;2024-02-23T07:34:01;5.30;99.90
14252;DHT22;7210;51.502;10.722;2024-02-23T07:36:28;5.40;99.90
14252;DHT22;7210;51.502;10.722;2024-02-23T07:38:55;5.50;99.90
14252;DHT22;7210;51.502;10.722;2024-02-23T07:41:23;5.70;99.90
14252;DHT22;7210;51.502;10.722;2024-02-23T07:43:50;5.80;99.90
14252;DHT22;7210;51.502;10.722;2024-02-23T07:46:17;5.90;99.90
14252;DHT22;7210;51.502;10.722;2024-02-23T07:48:49;5.90;99.90
14252;DHT22;7210;51.502;10.722;2024-02-23T07:51:16;6.00;99.90
14252;DHT22;7210;51.502;10.722;2024-02-23T07:53:43;6.20;99.90
14252;DHT22;7210;51.502;10.722;2024-02-23T07:56:10;6.30;99.90
14252;DHT22;7210;51.502;10.722;2024-02-23T07:58:39;6.30;99.90
14252;DHT22;7210;51.502;10.722;2024-02-23T08:01:06;6.40;99.90
14252;DHT22;7210;51.502;10.722;2024-02-23T08:03:33;6.40;99.90
14252;DHT22;7210;51.502;10.722;2024-02-23T08:06:01;6.40;99.90
14252;DHT22;7210;51.502;10.722;2024-02-23T08:08:28;6.50;99.90
14252;DHT22;7210;51.502;10.722;2024-02-23T08:10:58;6.50;99.90
14252;DHT22;7210;51.502;10.722;2024-02-23T08:13:31;6.60;99.90
14252;DHT22;7210;51.502;10.722;2024-02-23T08:15:59;6.70;99.90
14252;DHT22;7210;51.502;10.722;2024-02-23T08:18:27;6.80;99.90
14252;DHT22;7210;51.502;10.722;2024-02-23T08:20:54;6.80;99.90
14252;DHT22;7210;51.502;10.722;2024-02-23T08:23:25;6.90;99.90
14252;DHT22;7210;51.502;10.722;2024-02-23T08:25:52;6.90;99.90
14252;DHT22;7210;51.502;10.722;2024-02-23T08:28:25;7.00;99.90
14252;DHT22;7210;51.502;10.722;2024-02-23T08:30:52;7.00;99.90
14252;DHT22;7210;51.502;10.722;2024-02-23T08:33:20;7.10;99.90
14252;DHT22;7210;51.502;10.722;2024-02-23T08:35:48;7.30;99.90
14252;DHT22;7210;51.502;10.722;2024-02-23T08:38:25;7.30;99.90
14252;DHT22;7210;51.502;10.722;2024-02-23T08:40:52;7.30;99.90
14252;DHT22;7210;51.502;10.722;2024-02-23T08:43:25;7.30;99.90
14252;DHT22;7210;51.502;10.722;2024-02-23T08:45:55;7.50;99.90
14252;DHT22;7210;51.502;10.722;2024-02-23T08:48:23;7.50;99.90
14252;DHT22;7210;51.502;10.722;2024-02-23T08:50:55;7.30;99.90
14252;DHT22;7210;51.502;10.722;2024-02-23T08:53:22;7.30;99.90
14252;DHT22;7210;51.502;10.722;2024-02-23T08:55:49;7.20;99.90
14252;DHT22;7210;51.502;10.722;2024-02-23T08:58:16;7.20;99.90
14252;DHT22;7210;51.502;10.722;2024-02-23T09:00:43;7.10;99.90
14252;DHT22;7210;51.502;10.722;2024-02-23T09:03:10;7.00;99.90
14252;DHT22;7210;51.502;10.722;2024-02-23T09:05:39;7.00;99.90
14252;DHT22;7210;51.502;10.722;2024-02-23T09:08:06;6.90;99.90
14252;DHT22;7210;51.502;10.722;2024-02-23T09:10:34;6.90;99.90
14252;DHT22;7210;51.502;10.722;2024-02-23T09:13:07;6.90;99.90
14252;DHT22;7210;51.502;10.722;2024-02-23T09:15:34;6.90;99.90
14252;DHT22;7210;51.502;10.722;2024-02-23T09:18:01;6.80;99.90
14252;DHT22;7210;51.502;10.722;2024-02-23T09:20:28;6.80;99.90
14252;DHT22;7210;51.502;10.722;2024-02-23T09:22:56;6.80;99.90
14252;DHT22;7210;51.502;10.722;2024-02-23T09:25:24;6.80;99.90
14252;DHT22;7210;51.502;10.722;2024-02-23T09:27:51;6.80;99.90
14252;DHT22;7210;51.502;10.722;2024-02-23T09:30:19;6.90;99.90
14252;DHT22;7210;51.502;10.722;2024-02-23T09:32:46;7.00;99.90
14252;DHT22;7210;51.502;10.722;2024-02-23T09:35:19;7.10;99.90
14252;DHT22;7210;51.502;10.722;2024-02-23T09:37:46;7.10;99.90
14252;DHT22;7210;51.502;10.722;2024-02-23T09:40:15;7.10;99.90
14252;DHT22;7210;51.502;10.722;2024-02-23T09:42:42;7.10;99.90
14252;DHT22;7210;51.502;10.722;2024-02-23T09:45:14;7.10;99.90
14252;DHT22;7210;51.502;10.722;2024-02-23T09:47:43;7.20;99.90
14252;DHT22;7210;51.502;10.722;2024-02-23T09:50:12;7.20;99.90
14252;DHT22;7210;51.502;10.722;2024-02-23T09:52:40;7.30;99.90
14252;DHT22;7210;51.502;10.722;2024-02-23T09:55:08;7.30;99.90
14252;DHT22;7210;51.502;10.722;2024-02-23T09:57:37;7.30;99.90
14252;DHT22;7210;51.502;10.722;2024-02-23T10:00:06;7.50;99.90
14252;DHT22;7210;51.502;10.722;2024-02-23T10:02:43;7.60;99.90
14252;DHT22;7210;51.502;10.722;2024-02-23T10:05:11;7.90;99.90
14252;DHT22;7210;51.502;10.722;2024-02-23T10:07:38;7.90;99.90
14252;DHT22;7210;51.502;10.722;2024-02-23T10:10:07;8.00;99.90
14252;DHT22;7210;51.502;10.722;2024-02-23T10:12:37;7.80;99.90
14252;DHT22;7210;51.502;10.722;2024-02-23T10:15:07;7.70;99.90
14252;DHT22;7210;51.502;10.722;2024-02-23T10:17:34;7.70;99.90
14252;DHT22;7210;51.502;10.722;2024-02-23T10:20:02;7.70;99.90
14252;DHT22;7210;51.502;10.722;2024-02-23T10:22:30;7.70;99.90
14252;DHT22;7210;51.502;10.722;2024-02-23T10:24:58;7.70;99.90
14252;DHT22;7210;51.502;10.722;2024-02-23T10:27:25;7.90;99.90
14252;DHT22;7210;51.502;10.722;2024-02-23T10:29:56;7.90;99.90
14252;DHT22;7210;51.502;10.722;2024-02-23T10:32:23;7.90;99.90
14252;DHT22;7210;51.502;10.722;2024-02-23T10:35:00;8.00;99.90
14252;DHT22;7210;51.502;10.722;2024-02-23T10:37:30;8.00;99.90
14252;DHT22;7210;51.502;10.722;2024-02-23T10:40:00;7.90;99.90
14252;DHT22;7210;51.502;10.722;2024-02-23T10:42:34;7.80;99.90
14252;DHT22;7210;51.502;10.722;2024-02-23T10:45:05;7.80;99.90
14252;DHT22;7210;51.502;10.722;2024-02-23T10:47:34;7.80;99.90
14252;DHT22;7210;51.502;10.722;2024-02-23T10:50:03;8.00;99.90
14252;DHT22;7210;51.502;10.722;2024-02-23T10:52:32;7.90;99.90
14252;DHT22;7210;51.502;10.722;2024-02-23T10:55:01;8.00;99.90
14252;DHT22;7210;51.502;10.722;2024-02-23T10:57:30;7.90;99.90
14252;DHT22;7210;51.502;10.722;2024-02-23T10:59:58;8.00;99.90
14252;DHT22;7210;51.502;10.722;2024-02-23T11:02:28;8.10;99.90
14252;DHT22;7210;51.502;10.722;2024-02-23T11:05:07;8.20;99.90
14252;DHT22;7210;51.502;10.722;2024-02-23T11:07:38;8.10;99.90
14252;DHT22;7210;51.502;10.722;2024-02-23T11:10:06;7.90;99.90
14252;DHT22;7210;51.502;10.722;2024-02-23T11:12:57;7.80;99.90
14252;DHT22;7210;51.502;10.722;2024-02-23T11:15:29;7.80;99.90
14252;DHT22;7210;51.502;10.722;2024-02-23T11:18:00;7.70;99.90
14252;DHT22;7210;51.502;10.722;2024-02-23T11:20:34;7.70;99.90
14252;DHT22;7210;51.502;10.722;2024-02-23T11:23:13;7.60;99.90
14252;DHT22;7210;51.502;10.722;2024-02-23T11:25:42;7.60;99.90
14252;DHT22;7210;51.502;10.722;2024-02-23T11:28:22;7.50;99.90
14252;DHT22;7210;51.502;10.722;2024-02-23T11:30:51;7.40;99.90
14252;DHT22;7210;51.502;10.722;2024-02-23T11:33:27;7.50;99.90
14252;DHT22;7210;51.502;10.722;2024-02-23T11:36:04;7.50;99.90
14252;DHT22;7210;51.502;10.722;2024-02-23T11:38:39;7.60;99.90
14252;DHT22;7210;51.502;10.722;2024-02-23T11:41:06;7.70;99.90
14252;DHT22;7210;51.502;10.722;2024-02-23T11:43:34;7.80;99.90
14252;DHT22;7210;51.502;10.722;2024-02-23T11:46:02;8.00;99.90
14252;DHT22;7210;51.502;10.722;2024-02-23T11:48:31;7.90;99.90
14252;DHT22;7210;51.502;10.722;2024-02-23T11:50:58;8.00;99.90
14252;DHT22;7210;51.502;10.722;2024-02-23T11:53:25;8.10;99.90
14252;DHT22;7210;51.502;10.722;2024-02-23T11:55:53;8.10;99.90
14252;DHT22;7210;51.502;10.722;2024-02-23T11:58:20;8.10;99.90
14252;DHT22;7210;51.502;10.722;2024-02-23T12:00:47;8.10;99.90
14252;DHT22;7210;51.502;10.722;2024-02-23T12:03:14;8.20;99.90
14252;DHT22;7210;51.502;10.722;2024-02-23T12:05:44;8.20;99.90
14252;DHT22;7210;51.502;10.722;2024-02-23T12:08:11;8.00;99.90
14252;DHT22;7210;51.502;10.722;2024-02-23T12:10:39;8.10;99.90
14252;DHT22;7210;51.502;10.722;2024-02-23T12:13:07;8.00;99.90
14252;DHT22;7210;51.502;10.722;2024-02-23T12:15:34;8.10;99.90
14252;DHT22;7210;51.502;10.722;2024-02-23T12:18:03;8.10;99.90
14252;DHT22;7210;51.502;10.722;2024-02-23T12:20:37;8.20;99.90
14252;DHT22;7210;51.502;10.722;2024-02-23T12:23:05;8.20;99.90
14252;DHT22;7210;51.502;10.722;2024-02-23T12:25:33;8.20;99.90
14252;DHT22;7210;51.502;10.722;2024-02-23T12:28:00;8.30;99.90
14252;DHT22;7210;51.502;10.722;2024-02-23T12:30:30;8.30;99.90
14252;DHT22;7210;51.502;10.722;2024-02-23T12:33:03;8.20;99.90
14252;DHT22;7210;51.502;10.722;2024-02-23T12:35:43;8.20;99.90
14252;DHT22;7210;51.502;10.722;2024-02-23T12:38:12;8.30;99.90
14252;DHT22;7210;51.502;10.722;2024-02-23T12:40:39;8.30;99.90
14252;DHT22;7210;51.502;10.722;2024-02-23T12:43:07;8.50;99.90
14252;DHT22;7210;51.502;10.722;2024-02-23T12:45:34;8.50;99.90
14252;DHT22;7210;51.502;10.722;2024-02-23T12:48:02;8.50;99.90
14252;DHT22;7210;51.502;10.722;2024-02-23T12:50:30;8.40;99.90
14252;DHT22;7210;51.502;10.722;2024-02-23T12:52:57;8.30;99.90
14252;DHT22;7210;51.502;10.722;2024-02-23T12:55:27;8.40;99.90
14252;DHT22;7210;51.502;10.722;2024-02-23T12:57:54;8.30;99.90
14252;DHT22;7210;51.502;10.722;2024-02-23T13:00:21;8.30;99.90
14252;DHT22;7210;51.502;10.722;2024-02-23T13:02:49;8.20;99.90
14252;DHT22;7210;51.502;10.722;2024-02-23T13:05:16;8.20;99.90
14252;DHT22;7210;51.502;10.722;2024-02-23T13:07:43;8.20;99.90
14252;DHT22;7210;51.502;10.722;2024-02-23T13:10:10;8.30;99.90
14252;DHT22;7210;51.502;10.722;2024-02-23T13:12:38;8.40;99.90
14252;DHT22;7210;51.502;10.722;2024-02-23T13:15:07;8.30;99.90
14252;DHT22;7210;51.502;10.722;2024-02-23T13:17:35;8.40;99.90
14252;DHT22;7210;51.502;10.722;2024-02-23T13:20:02;8.50;99.90
14252;DHT22;7210;51.502;10.722;2024-02-23T13:22:29;8.50;99.90
14252;DHT22;7210;51.502;10.722;2024-02-23T13:24:56;8.50;99.90
14252;DHT22;7210;51.502;10.722;2024-02-23T13:27:23;8.50;99.90
14252;DHT22;7210;51.502;10.722;2024-02-23T13:29:52;8.50;99.90
14252;DHT22;7210;51.502;10.722;2024-02-23T13:32:19;8.50;99.90
14252;DHT22;7210;51.502;10.722;2024-02-23T13:34:46;8.40;99.90
14252;DHT22;7210;51.502;10.722;2024-02-23T13:37:13;8.30;99.90
14252;DHT22;7210;51.502;10.722;2024-02-23T13:39:40;8.40;99.90
14252;DHT22;7210;51.502;10.722;2024-02-23T13:42:07;8.40;99.90
14252;DHT22;7210;51.502;10.722;2024-02-23T13:44:35;8.40;99.90
14252;DHT22;7210;51.502;10.722;2024-02-23T13:47:04;8.40;99.90
14252;DHT22;7210;51.502;10.722;2024-02-23T13:49:31;8.40;99.90
14252;DHT22;7210;51.502;10.722;2024-02-23T13:52:01;8.50;99.90
14252;DHT22;7210;51.502;10.722;2024-02-23T13:54:28;8.60;99.90
14252;DHT22;7210;51.502;10.722;2024-02-23T13:56:55;8.60;99.90
14252;DHT22;7210;51.502;10.722;2024-02-23T13:59:22;8.60;99.90
14252;DHT22;7210;51.502;10.722;2024-02-23T14:01:50;8.70;99.90
14252;DHT22;7210;51.502;10.722;2024-02-23T14:04:20;8.80;99.90
14252;DHT22;7210;51.502;10.722;2024-02-23T14:06:47;8.80;99.90
14252;DHT22;7210;51.502;10.722;2024-02-23T14:09:14;8.60;99.90
14252;DHT22;7210;51.502;10.722;2024-02-23T14:11:42;8.60;99.90
14252;DHT22;7210;51.502;10.722;2024-02-23T14:14:10;8.70;99.90
14252;DHT22;7210;51.502;10.722;2024-02-23T14:16:37;8.70;99.90
14252;DHT22;7210;51.502;10.722;2024-02-23T14:19:04;8.80;99.90
14252;DHT22;7210;51.502;10.722;2024-02-23T14:21:33;8.90;99.90
14252;DHT22;7210;51.502;10.722;2024-02-23T14:24:07;8.80;99.90
14252;DHT22;7210;51.502;10.722;2024-02-23T14:26:34;8.70;99.90
14252;DHT22;7210;51.502;10.722;2024-02-23T14:29:01;8.70;99.90
14252;DHT22;7210;51.502;10.722;2024-02-23T14:31:28;8.50;99.90
14252;DHT22;7210;51.502;10.722;2024-02-23T14:33:55;8.40;99.90
14252;DHT22;7210;51.502;10.722;2024-02-23T14:36:23;8.40;99.90
14252;DHT22;7210;51.502;10.722;2024-02-23T14:38:51;8.50;99.90
14252;DHT22;7210;51.502;10.722;2024-02-23T14:41:18;8.50;99.90
14252;DHT22;7210;51.502;10.722;2024-02-23T14:43:45;8.50;99.90
14252;DHT22;7210;51.502;10.722;2024-02-23T14:46:13;8.50;99.90
14252;DHT22;7210;51.502;10.722;2024-02-23T14:48:40;8.50;99.90
14252;DHT22;7210;51.502;10.722;2024-02-23T14:51:07;8.50;99.90
14252;DHT22;7210;51.502;10.722;2024-02-23T14:53:37;8.50;99.90
14252;DHT22;7210;51.502;10.722;2024-02-23T14:56:06;8.40;99.90
14252;DHT22;7210;51.502;10.722;2024-02-23T14:58:33;8.40;99.90
14252;DHT22;7210;51.502;10.722;2024-02-23T15:01:00;8.40;99.90
14252;DHT22;7210;51.502;10.722;2024-02-23T15:03:27;8.40;99.90
14252;DHT22;7210;51.502;10.722;2024-02-23T15:05:56;8.50;99.90
14252;DHT22;7210;51.502;10.722;2024-02-23T15:08:24;8.40;99.90
14252;DHT22;7210;51.502;10.722;2024-02-23T15:10:51;8.30;99.90
14252;DHT22;7210;51.502;10.722;2024-02-23T15:13:19;8.30;99.90
14252;DHT22;7210;51.502;10.722;2024-02-23T15:15:47;8.30;99.90
14252;DHT22;7210;51.502;10.722;2024-02-23T15:18:14;8.20;99.90
14252;DHT22;7210;51.502;10.722;2024-02-23T15:20:41;8.30;99.90
14252;DHT22;7210;51.502;10.722;2024-02-23T15:23:08;8.40;99.90
14252;DHT22;7210;51.502;10.722;2024-02-23T15:25:35;8.50;99.90
14252;DHT22;7210;51.502;10.722;2024-02-23T15:28:07;8.60;99.90
14252;DHT22;7210;51.502;10.722;2024-02-23T15:30:38;8.60;99.90
14252;DHT22;7210;51.502;10.722;2024-02-23T15:33:05;8.70;99.90
14252;DHT22;7210;51.502;10.722;2024-02-23T15:35:37;8.70;99.90
14252;DHT22;7210;51.502;10.722;2024-02-23T15:38:04;8.60;99.90
14252;DHT22;7210;51.502;10.722;2024-02-23T15:40:31;8.60;99.90
14252;DHT22;7210;51.502;10.722;2024-02-23T15:42:58;8.50;99.90
14252;DHT22;7210;51.502;10.722;2024-02-23T15:45:25;8.50;99.90
14252;DHT22;7210;51.502;10.722;2024-02-23T15:47:54;8.50;99.90
14252;DHT22;7210;51.502;10.722;2024-02-23T15:50:25;8.50;99.90
14252;DHT22;7210;51.502;10.722;2024-02-23T15:52:53;8.60;99.90